sensor_id;sensor_type;location;lat;lon;timestamp;temperature;humidity
40534;DHT22;26233;51.894;10.192;2023-05-10T00:01:18;19.60;25.70
40534;DHT22;26233;51.894;10.192;2023-05-10T00:03:47;19.60;25.70
40534;DHT22;26233;51.894;10.192;2023-05-10T00:06:14;19.60;25.70
40534;DHT22;26233;51.894;10.192;2023-05-10T00:08:41;19.50;25.70
40534;DHT22;26233;51.894;10.192;2023-05-10T00:11:08;19.60;25.80
40534;DHT22;26233;51.894;10.192;2023-05-10T00:13:36;19.50;25.70
40534;DHT22;26233;51.894;10.192;2023-05-10T00:16:05;19.50;25.80
40534;DHT22;26233;51.894;10.192;2023-05-10T00:18:32;19.50;25.80
40534;DHT22;26233;51.894;10.192;2023-05-10T00:20:59;19.50;25.80
40534;DHT22;26233;51.894;10.192;2023-05-10T00:23:26;19.50;25.90
40534;DHT22;26233;51.894;10.192;2023-05-10T00:25:53;19.50;25.90
40534;DHT22;26233;51.894;10.192;2023-05-10T00:28:20;19.60;26.00
40534;DHT22;26233;51.894;10.192;2023-05-10T00:30:47;19.60;25.90
40534;DHT22;26233;51.894;10.192;2023-05-10T00:33:15;19.60;25.90
40534;DHT22;26233;51.894;10.192;2023-05-10T00:35:43;19.70;26.00
40534;DHT22;26233;51.894;10.192;2023-05-10T00:38:10;19.60;26.00
40534;DHT22;26233;51.894;10.192;2023-05-10T00:40:37;19.70;26.10
40534;DHT22;26233;51.894;10.192;2023-05-10T00:43:04;19.70;26.10
40534;DHT22;26233;51.894;10.192;2023-05-10T00:45:32;19.70;26.10
40534;DHT22;26233;51.894;10.192;2023-05-10T00:48:01;19.70;26.10
40534;DHT22;26233;51.894;10.192;2023-05-10T00:50:30;19.70;26.10
40534;DHT22;26233;51.894;10.192;2023-05-10T00:52:59;19.60;26.10
40534;DHT22;26233;51.894;10.192;2023-05-10T00:55:26;19.60;26.10
40534;DHT22;26233;51.894;10.192;2023-05-10T00:57:53;19.60;26.10
40534;DHT22;26233;51.894;10.192;2023-05-10T01:00:20;19.60;26.20
40534;DHT22;26233;51.894;10.192;2023-05-10T01:02:48;19.60;26.20
40534;DHT22;26233;51.894;10.192;2023-05-10T01:05:15;19.60;26.30
40534;DHT22;26233;51.894;10.192;2023-05-10T01:07:44;19.50;26.30
40534;DHT22;26233;51.894;10.192;2023-05-10T01:10:11;19.50;26.30
40534;DHT22;26233;51.894;10.192;2023-05-10T01:12:39;19.50;26.80
40534;DHT22;26233;51.894;10.192;2023-05-10T01:15:11;19.50;26.30
40534;DHT22;26233;51.894;10.192;2023-05-10T01:17:40;19.50;26.30
40534;DHT22;26233;51.894;10.192;2023-05-10T01:20:10;19.50;26.40
40534;DHT22;26233;51.894;10.192;2023-05-10T01:26:18;19.50;26.50
40534;DHT22;26233;51.894;10.192;2023-05-10T01:29:33;19.50;26.50
40534;DHT22;26233;51.894;10.192;2023-05-10T01:32:42;19.50;26.60
40534;DHT22;26233;51.894;10.192;2023-05-10T01:35:17;19.50;26.50
40534;DHT22;26233;51.894;10.192;2023-05-10T01:37:54;19.50;27.00
40534;DHT22;26233;51.894;10.192;2023-05-10T01:40:29;19.50;26.50
40534;DHT22;26233;51.894;10.192;2023-05-10T01:43:02;19.50;26.50
40534;DHT22;26233;51.894;10.192;2023-05-10T01:45:36;19.50;26.60
40534;DHT22;26233;51.894;10.192;2023-05-10T01:48:09;19.40;26.60
40534;DHT22;26233;51.894;10.192;2023-05-10T01:50:41;19.40;26.60
40534;DHT22;26233;51.894;10.192;2023-05-10T01:53:11;19.40;26.60
40534;DHT22;26233;51.894;10.192;2023-05-10T01:55:43;19.40;26.60
40534;DHT22;26233;51.894;10.192;2023-05-10T01:58:15;19.40;26.70
40534;DHT22;26233;51.894;10.192;2023-05-10T02:00:47;19.40;26.70
40534;DHT22;26233;51.894;10.192;2023-05-10T02:03:18;19.40;27.20
40534;DHT22;26233;51.894;10.192;2023-05-10T02:05:48;19.40;26.80
40534;DHT22;26233;51.894;10.192;2023-05-10T02:08:17;19.40;26.80
40534;DHT22;26233;51.894;10.192;2023-05-10T02:10:45;19.40;26.90
40534;DHT22;26233;51.894;10.192;2023-05-10T02:13:15;19.40;26.90
40534;DHT22;26233;51.894;10.192;2023-05-10T02:15:43;19.30;26.90
40534;DHT22;26233;51.894;10.192;2023-05-10T02:18:14;19.30;26.90
40534;DHT22;26233;51.894;10.192;2023-05-10T02:20:43;19.30;26.90
40534;DHT22;26233;51.894;10.192;2023-05-10T02:23:13;19.30;27.00
40534;DHT22;26233;51.894;10.192;2023-05-10T02:25:44;19.20;27.10
40534;DHT22;26233;51.894;10.192;2023-05-10T02:28:12;19.20;27.00
40534;DHT22;26233;51.894;10.192;2023-05-10T02:30:41;19.20;27.10
40534;DHT22;26233;51.894;10.192;2023-05-10T02:33:09;19.20;27.20
40534;DHT22;26233;51.894;10.192;2023-05-10T02:35:47;19.20;27.30
40534;DHT22;26233;51.894;10.192;2023-05-10T02:38:14;19.10;27.30
40534;DHT22;26233;51.894;10.192;2023-05-10T02:40:43;19.10;27.80
40534;DHT22;26233;51.894;10.192;2023-05-10T02:43:12;19.10;27.40
40534;DHT22;26233;51.894;10.192;2023-05-10T02:45:43;19.10;27.50
40534;DHT22;26233;51.894;10.192;2023-05-10T02:48:13;19.10;27.50
40534;DHT22;26233;51.894;10.192;2023-05-10T02:50:44;19.10;27.50
40534;DHT22;26233;51.894;10.192;2023-05-10T02:53:20;19.10;27.60
40534;DHT22;26233;51.894;10.192;2023-05-10T02:55:52;19.00;27.60
40534;DHT22;26233;51.894;10.192;2023-05-10T02:58:19;19.00;27.60
40534;DHT22;26233;51.894;10.192;2023-05-10T03:00:46;19.00;27.60
40534;DHT22;26233;51.894;10.192;2023-05-10T03:03:13;19.00;27.70
40534;DHT22;26233;51.894;10.192;2023-05-10T03:05:40;19.00;27.80
40534;DHT22;26233;51.894;10.192;2023-05-10T03:08:09;19.00;27.80
40534;DHT22;26233;51.894;10.192;2023-05-10T03:10:54;19.00;27.90
40534;DHT22;26233;51.894;10.192;2023-05-10T03:13:31;19.00;28.10
40534;DHT22;26233;51.894;10.192;2023-05-10T03:16:07;18.90;27.90
40534;DHT22;26233;51.894;10.192;2023-05-10T03:18:42;18.90;28.00
40534;DHT22;26233;51.894;10.192;2023-05-10T03:21:11;18.90;28.10
40534;DHT22;26233;51.894;10.192;2023-05-10T03:23:46;18.90;28.10
40534;DHT22;26233;51.894;10.192;2023-05-10T03:26:22;18.90;28.30
40534;DHT22;26233;51.894;10.192;2023-05-10T03:28:52;18.90;28.40
40534;DHT22;26233;51.894;10.192;2023-05-10T03:31:20;18.90;28.40
40534;DHT22;26233;51.894;10.192;2023-05-10T03:33:48;18.80;28.40
40534;DHT22;26233;51.894;10.192;2023-05-10T03:36:15;18.80;28.60
40534;DHT22;26233;51.894;10.192;2023-05-10T03:38:43;18.70;28.60
40534;DHT22;26233;51.894;10.192;2023-05-10T03:41:11;18.70;28.70
40534;DHT22;26233;51.894;10.192;2023-05-10T03:43:38;18.60;28.70
40534;DHT22;26233;51.894;10.192;2023-05-10T03:46:05;18.60;28.80
40534;DHT22;26233;51.894;10.192;2023-05-10T03:48:33;18.50;28.90
40534;DHT22;26233;51.894;10.192;2023-05-10T03:51:00;18.50;29.00
40534;DHT22;26233;51.894;10.192;2023-05-10T03:53:27;18.50;29.00
40534;DHT22;26233;51.894;10.192;2023-05-10T03:55:55;18.40;29.10
40534;DHT22;26233;51.894;10.192;2023-05-10T03:58:23;18.40;29.40
40534;DHT22;26233;51.894;10.192;2023-05-10T04:00:50;18.30;29.40
40534;DHT22;26233;51.894;10.192;2023-05-10T04:03:18;18.30;29.60
40534;DHT22;26233;51.894;10.192;2023-05-10T04:05:45;18.20;29.70
40534;DHT22;26233;51.894;10.192;2023-05-10T04:08:12;18.20;29.80
40534;DHT22;26233;51.894;10.192;2023-05-10T04:10:40;18.10;29.90
40534;DHT22;26233;51.894;10.192;2023-05-10T04:13:08;18.10;30.00
40534;DHT22;26233;51.894;10.192;2023-05-10T04:15:36;18.10;30.40
40534;DHT22;26233;51.894;10.192;2023-05-10T04:18:03;18.00;30.60
40534;DHT22;26233;51.894;10.192;2023-05-10T04:20:32;18.00;30.50
40534;DHT22;26233;51.894;10.192;2023-05-10T04:22:59;18.00;30.80
40534;DHT22;26233;51.894;10.192;2023-05-10T04:25:26;17.90;30.90
40534;DHT22;26233;51.894;10.192;2023-05-10T04:27:53;17.90;31.10
40534;DHT22;26233;51.894;10.192;2023-05-10T04:30:22;17.90;31.20
40534;DHT22;26233;51.894;10.192;2023-05-10T04:32:50;17.80;31.40
40534;DHT22;26233;51.894;10.192;2023-05-10T04:35:17;17.80;31.50
40534;DHT22;26233;51.894;10.192;2023-05-10T04:37:44;17.80;31.70
40534;DHT22;26233;51.894;10.192;2023-05-10T04:40:12;17.80;31.80
40534;DHT22;26233;51.894;10.192;2023-05-10T04:42:40;17.80;32.10
40534;DHT22;26233;51.894;10.192;2023-05-10T04:45:08;17.80;32.30
40534;DHT22;26233;51.894;10.192;2023-05-10T04:47:37;17.80;32.40
40534;DHT22;26233;51.894;10.192;2023-05-10T04:50:05;17.80;32.70
40534;DHT22;26233;51.894;10.192;2023-05-10T04:52:33;17.70;33.50
40534;DHT22;26233;51.894;10.192;2023-05-10T04:55:00;17.70;33.00
40534;DHT22;26233;51.894;10.192;2023-05-10T04:57:27;17.70;33.10
40534;DHT22;26233;51.894;10.192;2023-05-10T04:59:54;17.80;33.50
40534;DHT22;26233;51.894;10.192;2023-05-10T05:02:21;17.70;33.60
40534;DHT22;26233;51.894;10.192;2023-05-10T05:04:50;17.70;34.00
40534;DHT22;26233;51.894;10.192;2023-05-10T05:07:17;17.70;33.90
40534;DHT22;26233;51.894;10.192;2023-05-10T05:09:44;17.70;34.00
40534;DHT22;26233;51.894;10.192;2023-05-10T05:12:11;17.70;34.10
40534;DHT22;26233;51.894;10.192;2023-05-10T05:14:39;17.70;34.10
40534;DHT22;26233;51.894;10.192;2023-05-10T05:17:06;17.70;34.20
40534;DHT22;26233;51.894;10.192;2023-05-10T05:19:34;17.80;34.50
40534;DHT22;26233;51.894;10.192;2023-05-10T05:22:02;17.80;34.50
40534;DHT22;26233;51.894;10.192;2023-05-10T05:24:32;17.80;34.60
40534;DHT22;26233;51.894;10.192;2023-05-10T05:27:01;17.70;34.50
40534;DHT22;26233;51.894;10.192;2023-05-10T05:29:29;17.70;34.50
40534;DHT22;26233;51.894;10.192;2023-05-10T05:31:56;17.70;34.50
40534;DHT22;26233;51.894;10.192;2023-05-10T05:34:23;17.70;34.70
40534;DHT22;26233;51.894;10.192;2023-05-10T05:36:50;17.70;34.70
40534;DHT22;26233;51.894;10.192;2023-05-10T05:39:19;17.70;34.90
40534;DHT22;26233;51.894;10.192;2023-05-10T05:41:46;17.60;34.90
40534;DHT22;26233;51.894;10.192;2023-05-10T05:44:13;17.60;34.90
40534;DHT22;26233;51.894;10.192;2023-05-10T05:46:40;17.60;34.80
40534;DHT22;26233;51.894;10.192;2023-05-10T05:49:07;17.50;34.60
40534;DHT22;26233;51.894;10.192;2023-05-10T05:51:34;17.40;34.50
40534;DHT22;26233;51.894;10.192;2023-05-10T05:54:01;17.40;34.50
40534;DHT22;26233;51.894;10.192;2023-05-10T05:56:31;17.30;34.50
40534;DHT22;26233;51.894;10.192;2023-05-10T05:58:58;17.20;34.50
40534;DHT22;26233;51.894;10.192;2023-05-10T06:01:25;17.20;34.50
40534;DHT22;26233;51.894;10.192;2023-05-10T06:03:52;17.10;34.70
40534;DHT22;26233;51.894;10.192;2023-05-10T06:06:19;17.00;34.90
40534;DHT22;26233;51.894;10.192;2023-05-10T06:08:46;16.90;34.80
40534;DHT22;26233;51.894;10.192;2023-05-10T06:11:13;16.90;35.00
40534;DHT22;26233;51.894;10.192;2023-05-10T06:13:43;16.90;35.10
40534;DHT22;26233;51.894;10.192;2023-05-10T06:16:11;16.80;35.20
40534;DHT22;26233;51.894;10.192;2023-05-10T06:18:38;16.70;35.20
40534;DHT22;26233;51.894;10.192;2023-05-10T06:21:05;16.80;35.40
40534;DHT22;26233;51.894;10.192;2023-05-10T06:23:33;16.70;35.50
40534;DHT22;26233;51.894;10.192;2023-05-10T06:26:01;16.60;35.50
40534;DHT22;26233;51.894;10.192;2023-05-10T06:28:28;16.70;36.10
40534;DHT22;26233;51.894;10.192;2023-05-10T06:30:58;16.60;35.80
40534;DHT22;26233;51.894;10.192;2023-05-10T06:33:25;16.60;35.80
40534;DHT22;26233;51.894;10.192;2023-05-10T06:35:52;16.60;35.90
40534;DHT22;26233;51.894;10.192;2023-05-10T06:38:19;16.60;36.10
40534;DHT22;26233;51.894;10.192;2023-05-10T06:40:46;16.60;36.30
40534;DHT22;26233;51.894;10.192;2023-05-10T06:43:14;16.50;36.50
40534;DHT22;26233;51.894;10.192;2023-05-10T06:45:41;16.60;36.60
40534;DHT22;26233;51.894;10.192;2023-05-10T06:48:09;16.60;36.80
40534;DHT22;26233;51.894;10.192;2023-05-10T06:50:36;16.60;37.00
40534;DHT22;26233;51.894;10.192;2023-05-10T06:53:03;16.60;37.00
40534;DHT22;26233;51.894;10.192;2023-05-10T06:55:30;16.60;37.20
40534;DHT22;26233;51.894;10.192;2023-05-10T06:57:57;16.60;37.20
40534;DHT22;26233;51.894;10.192;2023-05-10T07:00:24;16.60;37.50
40534;DHT22;26233;51.894;10.192;2023-05-10T07:02:52;16.70;37.60
40534;DHT22;26233;51.894;10.192;2023-05-10T07:05:21;16.70;37.70
40534;DHT22;26233;51.894;10.192;2023-05-10T07:07:48;16.80;38.00
40534;DHT22;26233;51.894;10.192;2023-05-10T07:10:15;16.80;37.90
40534;DHT22;26233;51.894;10.192;2023-05-10T07:12:43;16.80;38.00
40534;DHT22;26233;51.894;10.192;2023-05-10T07:15:10;16.80;38.40
40534;DHT22;26233;51.894;10.192;2023-05-10T07:17:37;16.90;38.30
40534;DHT22;26233;51.894;10.192;2023-05-10T07:20:06;16.90;38.40
40534;DHT22;26233;51.894;10.192;2023-05-10T07:22:35;17.00;38.60
40534;DHT22;26233;51.894;10.192;2023-05-10T07:25:02;17.00;38.60
40534;DHT22;26233;51.894;10.192;2023-05-10T07:27:30;17.00;38.60
40534;DHT22;26233;51.894;10.192;2023-05-10T07:29:57;17.00;38.50
40534;DHT22;26233;51.894;10.192;2023-05-10T07:32:25;17.10;38.70
40534;DHT22;26233;51.894;10.192;2023-05-10T07:34:52;17.10;38.90
40534;DHT22;26233;51.894;10.192;2023-05-10T07:37:19;17.10;39.10
40534;DHT22;26233;51.894;10.192;2023-05-10T07:39:47;17.20;39.00
40534;DHT22;26233;51.894;10.192;2023-05-10T07:42:14;17.20;39.20
40534;DHT22;26233;51.894;10.192;2023-05-10T07:44:41;17.30;39.50
40534;DHT22;26233;51.894;10.192;2023-05-10T07:47:08;17.30;39.30
40534;DHT22;26233;51.894;10.192;2023-05-10T07:49:36;17.40;39.30
40534;DHT22;26233;51.894;10.192;2023-05-10T07:52:03;17.40;39.20
40534;DHT22;26233;51.894;10.192;2023-05-10T07:54:30;17.40;39.20
40534;DHT22;26233;51.894;10.192;2023-05-10T07:56:59;17.40;39.20
40534;DHT22;26233;51.894;10.192;2023-05-10T07:59:26;17.40;39.50
40534;DHT22;26233;51.894;10.192;2023-05-10T08:01:53;17.40;39.30
40534;DHT22;26233;51.894;10.192;2023-05-10T08:04:22;17.40;39.50
40534;DHT22;26233;51.894;10.192;2023-05-10T08:06:49;17.30;39.40
40534;DHT22;26233;51.894;10.192;2023-05-10T08:09:20;17.30;39.60
40534;DHT22;26233;51.894;10.192;2023-05-10T08:11:49;17.30;39.50
40534;DHT22;26233;51.894;10.192;2023-05-10T08:14:20;17.30;39.50
40534;DHT22;26233;51.894;10.192;2023-05-10T08:16:47;17.20;39.60
40534;DHT22;26233;51.894;10.192;2023-05-10T08:19:14;17.20;39.60
40534;DHT22;26233;51.894;10.192;2023-05-10T08:21:44;17.20;39.80
40534;DHT22;26233;51.894;10.192;2023-05-10T08:24:11;17.20;39.90
40534;DHT22;26233;51.894;10.192;2023-05-10T08:26:38;17.10;40.00
40534;DHT22;26233;51.894;10.192;2023-05-10T08:29:05;17.10;40.00
40534;DHT22;26233;51.894;10.192;2023-05-10T08:31:34;17.10;40.60
40534;DHT22;26233;51.894;10.192;2023-05-10T08:34:01;17.10;40.40
40534;DHT22;26233;51.894;10.192;2023-05-10T08:36:28;17.10;40.40
40534;DHT22;26233;51.894;10.192;2023-05-10T08:38:55;17.10;40.50
40534;DHT22;26233;51.894;10.192;2023-05-10T08:41:23;17.10;40.80
40534;DHT22;26233;51.894;10.192;2023-05-10T08:43:51;17.10;41.00
40534;DHT22;26233;51.894;10.192;2023-05-10T08:46:20;17.10;41.10
40534;DHT22;26233;51.894;10.192;2023-05-10T08:48:50;17.10;41.80
40534;DHT22;26233;51.894;10.192;2023-05-10T08:51:24;17.10;41.20
40534;DHT22;26233;51.894;10.192;2023-05-10T08:53:52;17.20;41.30
40534;DHT22;26233;51.894;10.192;2023-05-10T08:56:19;17.20;41.30
40534;DHT22;26233;51.894;10.192;2023-05-10T08:58:47;17.20;41.30
40534;DHT22;26233;51.894;10.192;2023-05-10T09:01:16;17.20;41.30
40534;DHT22;26233;51.894;10.192;2023-05-10T09:03:46;17.20;41.40
40534;DHT22;26233;51.894;10.192;2023-05-10T09:06:15;17.10;41.20
40534;DHT22;26233;51.894;10.192;2023-05-10T09:08:42;17.10;41.40
40534;DHT22;26233;51.894;10.192;2023-05-10T09:11:11;17.10;41.40
40534;DHT22;26233;51.894;10.192;2023-05-10T09:13:38;17.10;41.50
40534;DHT22;26233;51.894;10.192;2023-05-10T09:16:06;17.10;41.70
40534;DHT22;26233;51.894;10.192;2023-05-10T09:18:33;17.10;41.70
40534;DHT22;26233;51.894;10.192;2023-05-10T09:21:00;17.20;41.90
40534;DHT22;26233;51.894;10.192;2023-05-10T09:23:28;17.10;41.80
40534;DHT22;26233;51.894;10.192;2023-05-10T09:26:04;17.10;41.80
40534;DHT22;26233;51.894;10.192;2023-05-10T09:28:32;17.10;42.20
40534;DHT22;26233;51.894;10.192;2023-05-10T09:31:00;17.20;42.00
40534;DHT22;26233;51.894;10.192;2023-05-10T09:33:27;17.20;42.10
40534;DHT22;26233;51.894;10.192;2023-05-10T09:35:54;17.20;42.20
40534;DHT22;26233;51.894;10.192;2023-05-10T09:38:21;17.20;42.10
40534;DHT22;26233;51.894;10.192;2023-05-10T09:40:52;17.20;42.20
40534;DHT22;26233;51.894;10.192;2023-05-10T09:43:20;17.20;42.60
40534;DHT22;26233;51.894;10.192;2023-05-10T09:45:48;17.20;42.30
40534;DHT22;26233;51.894;10.192;2023-05-10T09:48:16;17.20;42.30
40534;DHT22;26233;51.894;10.192;2023-05-10T09:50:43;17.20;42.50
40534;DHT22;26233;51.894;10.192;2023-05-10T09:53:14;17.20;43.20
40534;DHT22;26233;51.894;10.192;2023-05-10T09:55:43;17.20;42.90
40534;DHT22;26233;51.894;10.192;2023-05-10T09:58:13;17.20;42.60
40534;DHT22;26233;51.894;10.192;2023-05-10T10:00:41;17.20;42.70
40534;DHT22;26233;51.894;10.192;2023-05-10T10:03:12;17.20;42.70
40534;DHT22;26233;51.894;10.192;2023-05-10T10:05:41;17.20;43.20
40534;DHT22;26233;51.894;10.192;2023-05-10T10:08:09;17.20;43.20
40534;DHT22;26233;51.894;10.192;2023-05-10T10:10:37;17.30;43.50
40534;DHT22;26233;51.894;10.192;2023-05-10T10:13:05;17.40;43.70
40534;DHT22;26233;51.894;10.192;2023-05-10T10:15:35;17.50;44.00
40534;DHT22;26233;51.894;10.192;2023-05-10T10:18:02;17.60;44.30
40534;DHT22;26233;51.894;10.192;2023-05-10T10:20:30;17.80;44.50
40534;DHT22;26233;51.894;10.192;2023-05-10T10:22:57;18.00;44.40
40534;DHT22;26233;51.894;10.192;2023-05-10T10:25:25;18.10;44.20
40534;DHT22;26233;51.894;10.192;2023-05-10T10:28:04;18.10;43.90
40534;DHT22;26233;51.894;10.192;2023-05-10T10:30:41;18.20;43.90
40534;DHT22;26233;51.894;10.192;2023-05-10T10:36:07;18.20;43.80
40534;DHT22;26233;51.894;10.192;2023-05-10T10:38:54;18.20;43.20
40534;DHT22;26233;51.894;10.192;2023-05-10T10:41:29;18.20;44.00
40534;DHT22;26233;51.894;10.192;2023-05-10T10:44:26;18.10;43.30
40534;DHT22;26233;51.894;10.192;2023-05-10T10:47:21;18.10;43.80
40534;DHT22;26233;51.894;10.192;2023-05-10T10:50:06;18.10;43.60
40534;DHT22;26233;51.894;10.192;2023-05-10T10:52:35;18.10;43.80
40534;DHT22;26233;51.894;10.192;2023-05-10T10:55:05;18.10;43.60
40534;DHT22;26233;51.894;10.192;2023-05-10T10:57:44;18.10;43.60
40534;DHT22;26233;51.894;10.192;2023-05-10T11:00:21;18.10;44.00
40534;DHT22;26233;51.894;10.192;2023-05-10T11:02:59;18.20;44.20
40534;DHT22;26233;51.894;10.192;2023-05-10T11:05:40;18.20;44.10
40534;DHT22;26233;51.894;10.192;2023-05-10T11:08:13;18.30;44.60
40534;DHT22;26233;51.894;10.192;2023-05-10T11:11:03;18.40;44.50
40534;DHT22;26233;51.894;10.192;2023-05-10T11:13:34;18.50;45.00
40534;DHT22;26233;51.894;10.192;2023-05-10T11:16:15;18.60;44.40
40534;DHT22;26233;51.894;10.192;2023-05-10T11:19:09;18.70;44.70
40534;DHT22;26233;51.894;10.192;2023-05-10T11:21:45;18.80;44.70
40534;DHT22;26233;51.894;10.192;2023-05-10T11:24:15;18.80;44.40
40534;DHT22;26233;51.894;10.192;2023-05-10T11:26:43;18.90;44.40
40534;DHT22;26233;51.894;10.192;2023-05-10T11:29:12;19.00;44.50
40534;DHT22;26233;51.894;10.192;2023-05-10T11:31:43;19.10;45.10
40534;DHT22;26233;51.894;10.192;2023-05-10T11:34:23;19.30;45.60
40534;DHT22;26233;51.894;10.192;2023-05-10T11:36:51;19.50;45.90
40534;DHT22;26233;51.894;10.192;2023-05-10T11:39:19;19.80;45.90
40534;DHT22;26233;51.894;10.192;2023-05-10T11:41:48;20.10;46.50
40534;DHT22;26233;51.894;10.192;2023-05-10T11:44:15;20.20;45.10
40534;DHT22;26233;51.894;10.192;2023-05-10T11:46:43;20.30;44.50
40534;DHT22;26233;51.894;10.192;2023-05-10T11:49:10;20.30;44.20
40534;DHT22;26233;51.894;10.192;2023-05-10T11:51:40;20.30;43.90
40534;DHT22;26233;51.894;10.192;2023-05-10T11:54:10;20.20;43.60
40534;DHT22;26233;51.894;10.192;2023-05-10T11:56:37;20.20;43.60
40534;DHT22;26233;51.894;10.192;2023-05-10T11:59:04;20.10;43.90
40534;DHT22;26233;51.894;10.192;2023-05-10T12:01:33;20.20;44.30
40534;DHT22;26233;51.894;10.192;2023-05-10T12:04:01;20.30;44.30
40534;DHT22;26233;51.894;10.192;2023-05-10T12:06:29;20.30;45.00
40534;DHT22;26233;51.894;10.192;2023-05-10T12:08:59;20.60;46.20
40534;DHT22;26233;51.894;10.192;2023-05-10T12:11:27;20.90;46.20
40534;DHT22;26233;51.894;10.192;2023-05-10T12:13:55;21.20;46.00
40534;DHT22;26233;51.894;10.192;2023-05-10T12:16:23;21.50;45.60
40534;DHT22;26233;51.894;10.192;2023-05-10T12:18:52;21.70;45.00
40534;DHT22;26233;51.894;10.192;2023-05-10T12:21:20;21.80;44.40
40534;DHT22;26233;51.894;10.192;2023-05-10T12:23:49;21.80;43.80
40534;DHT22;26233;51.894;10.192;2023-05-10T12:26:21;21.80;43.40
40534;DHT22;26233;51.894;10.192;2023-05-10T12:28:48;21.80;43.20
40534;DHT22;26233;51.894;10.192;2023-05-10T12:31:15;21.70;43.00
40534;DHT22;26233;51.894;10.192;2023-05-10T12:33:43;21.60;43.00
40534;DHT22;26233;51.894;10.192;2023-05-10T12:36:14;21.60;42.90
40534;DHT22;26233;51.894;10.192;2023-05-10T12:38:42;21.50;42.80
40534;DHT22;26233;51.894;10.192;2023-05-10T12:41:14;21.40;42.80
40534;DHT22;26233;51.894;10.192;2023-05-10T12:43:44;21.30;42.70
40534;DHT22;26233;51.894;10.192;2023-05-10T12:46:13;21.30;42.60
40534;DHT22;26233;51.894;10.192;2023-05-10T12:48:42;21.20;42.50
40534;DHT22;26233;51.894;10.192;2023-05-10T12:51:11;21.20;42.50
40534;DHT22;26233;51.894;10.192;2023-05-10T12:53:41;21.00;42.30
40534;DHT22;26233;51.894;10.192;2023-05-10T12:56:08;21.00;42.20
40534;DHT22;26233;51.894;10.192;2023-05-10T12:58:35;21.00;42.30
40534;DHT22;26233;51.894;10.192;2023-05-10T13:01:05;20.80;42.10
40534;DHT22;26233;51.894;10.192;2023-05-10T13:03:32;20.80;42.40
40534;DHT22;26233;51.894;10.192;2023-05-10T13:05:59;20.60;42.40
40534;DHT22;26233;51.894;10.192;2023-05-10T13:08:26;20.60;42.60
40534;DHT22;26233;51.894;10.192;2023-05-10T13:10:55;20.50;42.50
40534;DHT22;26233;51.894;10.192;2023-05-10T13:13:22;20.40;42.50
40534;DHT22;26233;51.894;10.192;2023-05-10T13:15:49;20.30;42.50
40534;DHT22;26233;51.894;10.192;2023-05-10T13:18:17;20.20;42.80
40534;DHT22;26233;51.894;10.192;2023-05-10T13:20:44;20.10;43.00
40534;DHT22;26233;51.894;10.192;2023-05-10T13:23:11;20.00;43.10
40534;DHT22;26233;51.894;10.192;2023-05-10T13:25:38;20.00;43.90
40534;DHT22;26233;51.894;10.192;2023-05-10T13:28:05;20.00;43.50
40534;DHT22;26233;51.894;10.192;2023-05-10T13:30:32;20.00;43.90
40534;DHT22;26233;51.894;10.192;2023-05-10T13:32:59;20.10;44.10
40534;DHT22;26233;51.894;10.192;2023-05-10T13:35:28;20.10;44.30
40534;DHT22;26233;51.894;10.192;2023-05-10T13:37:55;20.20;44.40
40534;DHT22;26233;51.894;10.192;2023-05-10T13:40:23;20.30;44.30
40534;DHT22;26233;51.894;10.192;2023-05-10T13:42:50;20.40;44.40
40534;DHT22;26233;51.894;10.192;2023-05-10T13:45:18;20.30;44.20
40534;DHT22;26233;51.894;10.192;2023-05-10T13:47:45;20.40;44.20
40534;DHT22;26233;51.894;10.192;2023-05-10T13:50:12;20.40;44.20
40534;DHT22;26233;51.894;10.192;2023-05-10T13:52:40;20.40;44.20
40534;DHT22;26233;51.894;10.192;2023-05-10T13:55:08;20.40;44.30
40534;DHT22;26233;51.894;10.192;2023-05-10T13:57:37;20.50;44.40
40534;DHT22;26233;51.894;10.192;2023-05-10T14:00:06;20.50;44.40
40534;DHT22;26233;51.894;10.192;2023-05-10T14:02:33;20.60;44.40
40534;DHT22;26233;51.894;10.192;2023-05-10T14:05:00;20.60;44.20
40534;DHT22;26233;51.894;10.192;2023-05-10T14:07:27;20.70;44.10
40534;DHT22;26233;51.894;10.192;2023-05-10T14:09:56;20.80;44.10
40534;DHT22;26233;51.894;10.192;2023-05-10T14:12:23;20.90;44.20
40534;DHT22;26233;51.894;10.192;2023-05-10T14:14:50;21.00;43.90
40534;DHT22;26233;51.894;10.192;2023-05-10T14:17:17;21.00;44.20
40534;DHT22;26233;51.894;10.192;2023-05-10T14:19:44;21.00;43.50
40534;DHT22;26233;51.894;10.192;2023-05-10T14:22:11;21.00;43.50
40534;DHT22;26233;51.894;10.192;2023-05-10T14:24:38;21.00;43.50
40534;DHT22;26233;51.894;10.192;2023-05-10T14:27:07;21.00;43.50
40534;DHT22;26233;51.894;10.192;2023-05-10T14:29:34;21.10;43.50
40534;DHT22;26233;51.894;10.192;2023-05-10T14:32:01;21.20;43.70
40534;DHT22;26233;51.894;10.192;2023-05-10T14:34:28;21.30;43.50
40534;DHT22;26233;51.894;10.192;2023-05-10T14:36:55;21.30;43.00
40534;DHT22;26233;51.894;10.192;2023-05-10T14:39:22;21.40;42.80
40534;DHT22;26233;51.894;10.192;2023-05-10T14:41:49;21.50;42.70
40534;DHT22;26233;51.894;10.192;2023-05-10T14:44:18;21.50;42.40
40534;DHT22;26233;51.894;10.192;2023-05-10T14:46:45;21.60;42.50
40534;DHT22;26233;51.894;10.192;2023-05-10T14:49:12;21.60;42.30
40534;DHT22;26233;51.894;10.192;2023-05-10T14:51:39;21.60;42.00
40534;DHT22;26233;51.894;10.192;2023-05-10T14:54:06;21.70;42.20
40534;DHT22;26233;51.894;10.192;2023-05-10T14:56:33;21.70;42.20
40534;DHT22;26233;51.894;10.192;2023-05-10T14:59:02;21.70;41.90
40534;DHT22;26233;51.894;10.192;2023-05-10T15:01:31;21.70;41.90
40534;DHT22;26233;51.894;10.192;2023-05-10T15:04:00;21.70;41.70
40534;DHT22;26233;51.894;10.192;2023-05-10T15:06:31;21.70;41.70
40534;DHT22;26233;51.894;10.192;2023-05-10T15:08:59;21.80;41.40
40534;DHT22;26233;51.894;10.192;2023-05-10T15:11:27;21.70;41.40
40534;DHT22;26233;51.894;10.192;2023-05-10T15:13:54;21.70;41.40
40534;DHT22;26233;51.894;10.192;2023-05-10T15:16:21;21.70;41.40
40534;DHT22;26233;51.894;10.192;2023-05-10T15:18:50;21.70;41.50
40534;DHT22;26233;51.894;10.192;2023-05-10T15:21:17;21.70;41.30
40534;DHT22;26233;51.894;10.192;2023-05-10T15:23:44;21.70;41.30
40534;DHT22;26233;51.894;10.192;2023-05-10T15:26:11;21.70;41.30
40534;DHT22;26233;51.894;10.192;2023-05-10T15:28:38;21.70;41.20
40534;DHT22;26233;51.894;10.192;2023-05-10T15:31:05;21.60;40.90
40534;DHT22;26233;51.894;10.192;2023-05-10T15:33:32;21.60;40.90